createdAt,value
2022-12-12T00:01:46.548Z,12.18
2022-12-12T00:04:29.266Z,11.38
2022-12-12T00:07:11.876Z,11.32
2022-12-12T00:09:54.433Z,11.35
2022-12-12T00:12:38.435Z,11.00
2022-12-12T00:15:21.346Z,10.90
2022-12-12T00:18:03.972Z,11.85
2022-12-12T00:20:46.627Z,11.40
2022-12-12T00:23:29.387Z,10.55
2022-12-12T00:26:16.101Z,9.73
2022-12-12T00:29:00.333Z,10.73
2022-12-12T00:31:42.934Z,10.05
2022-12-12T00:34:25.501Z,11.70
2022-12-12T00:37:08.080Z,10.43
2022-12-12T00:39:50.651Z,10.65
2022-12-12T00:42:33.270Z,10.38
2022-12-12T00:45:17.441Z,10.68
2022-12-12T00:48:00.158Z,10.70
2022-12-12T00:50:43.223Z,10.38
2022-12-12T00:53:26.166Z,11.00
2022-12-12T00:56:08.751Z,10.65
2022-12-12T00:58:51.797Z,11.02
2022-12-12T01:01:36.144Z,10.82
2022-12-12T01:04:19.016Z,10.60
2022-12-12T01:07:01.806Z,10.50
2022-12-12T01:09:44.415Z,10.75
2022-12-12T01:12:26.945Z,10.88
2022-12-12T01:15:10.922Z,10.60
2022-12-12T01:17:55.214Z,10.52
2022-12-12T01:20:37.825Z,11.15
2022-12-12T01:23:20.415Z,10.40
2022-12-12T01:26:03.477Z,11.52
2022-12-12T01:28:46.282Z,11.13
2022-12-12T01:31:28.872Z,11.30
2022-12-12T01:34:13.078Z,11.23
2022-12-12T01:36:55.676Z,10.98
2022-12-12T01:39:38.240Z,10.30
2022-12-12T01:42:20.920Z,10.93
2022-12-12T01:45:03.943Z,10.98
2022-12-12T01:47:46.600Z,11.20
2022-12-12T01:50:30.496Z,11.52
2022-12-12T01:53:14.274Z,11.88
2022-12-12T01:55:57.231Z,11.40
2022-12-12T01:58:41.037Z,11.27
2022-12-12T02:01:24.007Z,11.50
2022-12-12T02:04:07.751Z,11.40
2022-12-12T02:06:52.427Z,11.70
2022-12-12T02:09:36.907Z,10.88
2022-12-12T02:12:19.446Z,11.05
2022-12-12T02:15:02.050Z,10.85
2022-12-12T02:17:51.896Z,10.55
2022-12-12T02:20:44.554Z,10.50
2022-12-12T02:23:57.148Z,10.57
2022-12-12T02:27:06.777Z,10.57
2022-12-12T02:30:03.152Z,10.80
2022-12-12T02:32:56.996Z,10.02
2022-12-12T02:35:44.378Z,10.88
2022-12-12T02:38:29.149Z,10.77
2022-12-12T02:41:15.230Z,10.52
2022-12-12T02:44:01.980Z,11.45
2022-12-12T02:46:47.601Z,11.00
2022-12-12T02:49:33.947Z,10.68
2022-12-12T02:52:17.520Z,11.63
2022-12-12T02:55:00.189Z,11.57
2022-12-12T02:57:43.285Z,11.95
2022-12-12T03:00:26.517Z,10.68
2022-12-12T03:03:39.455Z,10.85
2022-12-12T03:06:54.329Z,10.95
2022-12-12T03:09:43.936Z,10.52
2022-12-12T03:12:28.542Z,10.98
2022-12-12T03:15:15.585Z,11.23
2022-12-12T03:18:02.767Z,11.15
2022-12-12T03:20:48.893Z,11.88
2022-12-12T03:23:34.576Z,11.20
2022-12-12T03:26:20.744Z,11.43
2022-12-12T03:29:06.645Z,11.82
2022-12-12T03:31:52.216Z,11.00
2022-12-12T03:34:37.282Z,12.45
2022-12-12T03:37:21.852Z,11.07
2022-12-12T03:40:06.711Z,11.73
2022-12-12T03:42:54.937Z,11.05
2022-12-12T03:45:39.000Z,10.95
2022-12-12T03:48:24.976Z,11.80
2022-12-12T03:51:09.777Z,11.45
2022-12-12T03:53:54.112Z,11.73
2022-12-12T03:56:39.596Z,11.85
2022-12-12T03:59:27.535Z,11.63
2022-12-12T04:02:13.934Z,11.00
2022-12-12T04:04:59.619Z,11.27
2022-12-12T04:07:44.361Z,11.00
2022-12-12T04:10:46.280Z,11.23
2022-12-12T04:13:32.436Z,10.82
2022-12-12T04:16:17.684Z,10.63
2022-12-12T04:19:02.317Z,10.30
2022-12-12T04:22:05.576Z,10.57
2022-12-12T04:24:50.089Z,10.35
2022-12-12T04:27:36.404Z,10.85
2022-12-12T04:30:19.100Z,10.15
2022-12-12T04:33:06.660Z,9.57
2022-12-12T04:35:51.004Z,10.35
2022-12-12T04:38:33.650Z,10.30
2022-12-12T04:41:17.313Z,11.15
2022-12-12T04:44:01.927Z,12.18
2022-12-12T04:46:46.033Z,10.77
2022-12-12T04:49:31.761Z,11.73
2022-12-12T04:52:16.394Z,11.02
2022-12-12T04:55:01.287Z,10.65
2022-12-12T04:57:45.661Z,11.45
2022-12-12T05:00:32.073Z,10.75
2022-12-12T05:03:18.108Z,11.60
2022-12-12T05:06:06.042Z,11.10
2022-12-12T05:08:49.567Z,11.00
2022-12-12T05:11:32.370Z,11.57
2022-12-12T05:14:16.316Z,11.23
2022-12-12T05:17:02.116Z,11.02
2022-12-12T05:19:44.709Z,11.40
2022-12-12T05:22:28.693Z,11.20
2022-12-12T05:25:12.013Z,12.02
2022-12-12T05:27:54.916Z,11.18
2022-12-12T05:30:37.762Z,12.18
2022-12-12T05:33:20.365Z,10.77
2022-12-12T05:36:02.973Z,12.35
2022-12-12T05:38:46.965Z,11.40
2022-12-12T05:41:30.064Z,11.75
2022-12-12T05:44:13.219Z,12.00
2022-12-12T05:46:55.838Z,12.60
2022-12-12T05:49:38.463Z,12.13
2022-12-12T05:52:22.335Z,11.77
2022-12-12T05:55:07.257Z,11.23
2022-12-12T05:57:49.896Z,11.38
2022-12-12T06:00:32.500Z,11.23
2022-12-12T06:03:15.173Z,11.70
2022-12-12T06:05:57.741Z,11.65
2022-12-12T06:08:40.486Z,12.75
2022-12-12T06:11:24.479Z,11.93
2022-12-12T06:14:07.096Z,12.05
2022-12-12T06:16:49.866Z,11.95
2022-12-12T06:19:32.482Z,11.10
2022-12-12T06:22:15.082Z,12.07
2022-12-12T06:24:57.755Z,12.00
2022-12-12T06:27:41.870Z,11.75
2022-12-12T06:30:24.426Z,12.60
2022-12-12T06:33:07.052Z,12.32
2022-12-12T06:35:58.194Z,11.65
2022-12-12T06:38:40.896Z,11.38
2022-12-12T06:41:24.670Z,13.30
2022-12-12T06:44:08.700Z,13.02
2022-12-12T06:46:51.316Z,13.57
2022-12-12T06:49:33.926Z,12.73
2022-12-12T06:52:16.528Z,12.95
2022-12-12T06:54:59.127Z,11.13
2022-12-12T06:57:41.786Z,11.30
2022-12-12T07:00:25.720Z,11.60
2022-12-12T07:03:08.406Z,12.52
2022-12-12T07:05:51.034Z,11.52
2022-12-12T07:08:35.081Z,11.40
2022-12-12T07:11:18.591Z,11.73
2022-12-12T07:14:03.696Z,12.50
2022-12-12T07:16:47.701Z,13.02
2022-12-12T07:19:30.313Z,11.32
2022-12-12T07:22:12.929Z,11.18
2022-12-12T07:24:55.610Z,11.35
2022-12-12T07:27:38.438Z,11.60
2022-12-12T07:30:21.069Z,11.25
2022-12-12T07:33:05.031Z,12.30
2022-12-12T07:35:47.739Z,12.13
2022-12-12T07:38:30.316Z,12.35
2022-12-12T07:41:14.327Z,12.52
2022-12-12T07:43:57.117Z,12.38
2022-12-12T07:46:39.809Z,12.10
2022-12-12T07:49:24.060Z,11.88
2022-12-12T07:52:08.112Z,11.88
2022-12-12T07:54:50.718Z,11.20
2022-12-12T07:57:33.438Z,11.18
2022-12-12T08:00:16.665Z,11.35
2022-12-12T08:02:59.348Z,11.85
2022-12-12T08:05:43.489Z,12.18
2022-12-12T08:08:26.294Z,12.57
2022-12-12T08:11:09.827Z,12.32
2022-12-12T08:13:52.792Z,13.25
2022-12-12T08:16:35.715Z,13.15
2022-12-12T08:19:18.759Z,13.60
2022-12-12T08:22:03.198Z,11.60
2022-12-12T08:24:45.832Z,11.25
2022-12-12T08:27:28.596Z,10.48
2022-12-12T08:30:11.917Z,10.90
2022-12-12T08:32:55.017Z,11.20
2022-12-12T08:35:37.747Z,12.10
2022-12-12T08:38:21.789Z,10.48
2022-12-12T08:41:04.730Z,10.25
2022-12-12T08:43:47.452Z,11.25
2022-12-12T08:46:30.228Z,11.57
2022-12-12T08:49:13.289Z,11.40
2022-12-12T08:51:55.944Z,13.23
2022-12-12T08:54:40.018Z,13.73
2022-12-12T08:57:25.932Z,14.95
2022-12-12T09:00:09.729Z,13.68
2022-12-12T09:02:52.466Z,13.18
2022-12-12T09:05:35.244Z,12.90
2022-12-12T09:08:18.089Z,13.48
2022-12-12T09:11:02.046Z,14.43
2022-12-12T09:13:44.782Z,13.25
2022-12-12T09:16:29.876Z,13.98
2022-12-12T09:19:12.598Z,13.75
2022-12-12T09:21:55.218Z,13.15
2022-12-12T09:24:37.853Z,14.40
2022-12-12T09:27:21.830Z,12.82
2022-12-12T09:30:04.826Z,13.48
2022-12-12T09:32:47.478Z,12.93
2022-12-12T09:35:30.208Z,13.68
2022-12-12T09:38:15.014Z,13.30
2022-12-12T09:40:59.946Z,13.50
2022-12-12T09:43:52.691Z,13.32
2022-12-12T09:46:37.572Z,12.65
2022-12-12T09:49:26.134Z,12.88
2022-12-12T09:52:10.431Z,13.32
2022-12-12T09:54:54.061Z,13.88
2022-12-12T09:57:40.556Z,13.40
2022-12-12T10:00:24.622Z,14.55
2022-12-12T10:03:14.690Z,13.30
2022-12-12T10:06:28.596Z,13.77
2022-12-12T10:09:13.449Z,13.02
2022-12-12T10:11:56.760Z,14.60
2022-12-12T10:14:40.361Z,13.27
2022-12-12T10:17:27.845Z,13.88
2022-12-12T10:20:16.157Z,9.80
2022-12-12T10:23:02.944Z,9.07
2022-12-12T10:25:49.386Z,10.00
2022-12-12T10:28:32.970Z,8.70
2022-12-12T10:31:21.622Z,9.52
2022-12-12T10:34:18.905Z,9.25
2022-12-12T10:37:10.454Z,9.75
2022-12-12T10:39:58.139Z,9.68
2022-12-12T10:42:42.624Z,9.38
2022-12-12T10:45:31.943Z,11.52
2022-12-12T10:48:14.926Z,11.02
2022-12-12T10:51:01.529Z,10.45
2022-12-12T10:53:45.082Z,11.20
2022-12-12T10:56:28.980Z,10.55
2022-12-12T10:59:21.900Z,10.77
2022-12-12T11:02:11.800Z,10.95
2022-12-12T11:05:02.155Z,9.77
2022-12-12T11:07:47.445Z,9.63
2022-12-12T11:10:34.223Z,9.00
2022-12-12T11:13:17.824Z,9.82
2022-12-12T11:16:01.942Z,9.23
2022-12-12T11:18:57.277Z,9.82
2022-12-12T11:21:39.976Z,9.90
2022-12-12T11:24:25.251Z,9.25
2022-12-12T11:27:08.425Z,10.43
2022-12-12T11:29:52.646Z,9.57
2022-12-12T11:32:39.472Z,10.30
2022-12-12T11:35:24.519Z,10.95
2022-12-12T11:38:08.534Z,10.40
2022-12-12T11:40:58.420Z,10.90
2022-12-12T11:43:54.397Z,10.98
2022-12-12T11:46:37.039Z,11.10
2022-12-12T11:49:20.722Z,10.32
2022-12-12T11:52:18.085Z,11.05
2022-12-12T11:55:02.275Z,10.63
2022-12-12T11:58:04.082Z,11.43
2022-12-12T12:00:51.828Z,11.05
2022-12-12T12:03:47.000Z,10.93
2022-12-12T12:06:36.090Z,10.90
2022-12-12T12:09:28.501Z,10.30
2022-12-12T12:12:14.081Z,9.75
2022-12-12T12:15:04.563Z,10.25
2022-12-12T12:17:58.052Z,11.45
2022-12-12T12:20:50.663Z,10.18
2022-12-12T12:23:42.536Z,10.38
2022-12-12T12:26:29.473Z,11.93
2022-12-12T12:29:30.338Z,10.93
2022-12-12T12:32:17.345Z,10.30
2022-12-12T12:35:09.090Z,11.05
2022-12-12T12:37:56.045Z,11.38
2022-12-12T12:40:48.841Z,11.73
2022-12-12T12:43:39.967Z,12.55
2022-12-12T12:46:26.476Z,11.75
2022-12-12T12:49:13.308Z,11.63
2022-12-12T12:51:59.361Z,12.07
2022-12-12T12:54:43.275Z,10.70
2022-12-12T12:57:28.873Z,12.13
2022-12-12T13:00:16.737Z,12.52
2022-12-12T13:03:02.230Z,11.60
2022-12-12T13:05:47.436Z,11.73
2022-12-12T13:08:34.092Z,12.25
2022-12-12T13:11:20.312Z,12.48
2022-12-12T13:14:10.498Z,11.70
2022-12-12T13:16:54.010Z,12.00
2022-12-12T13:19:38.935Z,12.68
2022-12-12T13:22:26.176Z,12.13
2022-12-12T13:25:15.491Z,11.40
2022-12-12T13:27:59.818Z,12.10
2022-12-12T13:30:48.643Z,12.13
2022-12-12T13:33:37.860Z,11.90
2022-12-12T13:36:27.655Z,11.90
2022-12-12T13:39:23.465Z,11.45
2022-12-12T13:42:08.741Z,11.68
2022-12-12T13:44:51.574Z,10.32
2022-12-12T13:47:59.249Z,10.43
2022-12-12T13:50:41.898Z,10.18
2022-12-12T13:53:24.495Z,10.30
2022-12-12T13:56:22.002Z,10.75
2022-12-12T13:59:26.103Z,10.98
2022-12-12T14:02:31.843Z,11.43
2022-12-12T14:05:16.675Z,11.45
2022-12-12T14:08:02.964Z,11.73
2022-12-12T14:10:52.566Z,11.43
2022-12-12T14:13:40.045Z,11.35
2022-12-12T14:16:26.673Z,12.45
2022-12-12T14:19:19.081Z,11.55
2022-12-12T14:22:01.711Z,12.25
2022-12-12T14:25:05.338Z,11.93
2022-12-12T14:28:15.703Z,11.95
2022-12-12T14:31:00.164Z,10.93
2022-12-12T14:33:58.699Z,12.38
2022-12-12T14:37:08.583Z,11.70
2022-12-12T14:40:00.482Z,11.95
2022-12-12T14:43:18.580Z,11.50
2022-12-12T14:45:59.501Z,12.60
2022-12-12T14:48:43.870Z,12.35
2022-12-12T14:51:30.068Z,12.68
2022-12-12T14:54:15.634Z,11.77
2022-12-12T14:57:00.450Z,11.40
2022-12-12T14:59:43.122Z,12.20
2022-12-12T15:02:30.602Z,12.98
2022-12-12T15:05:14.221Z,13.27
2022-12-12T15:08:00.513Z,12.93
2022-12-12T15:10:43.236Z,12.77
2022-12-12T15:13:25.969Z,12.65
2022-12-12T15:16:08.625Z,12.85
2022-12-12T15:18:51.321Z,13.15
2022-12-12T15:21:34.743Z,13.00
2022-12-12T15:24:20.321Z,13.15
2022-12-12T15:27:03.035Z,13.48
2022-12-12T15:29:45.766Z,12.50
2022-12-12T15:32:29.316Z,12.90
2022-12-12T15:35:18.758Z,12.50
2022-12-12T15:38:02.107Z,11.35
2022-12-12T15:40:48.565Z,10.45
2022-12-12T15:43:31.989Z,10.60
2022-12-12T15:46:15.585Z,10.20
2022-12-12T15:48:58.713Z,11.07
2022-12-12T15:51:41.422Z,11.50
2022-12-12T15:54:24.926Z,11.13
2022-12-12T15:57:14.459Z,11.60
2022-12-12T15:59:58.066Z,11.27
2022-12-12T16:02:42.555Z,10.52
2022-12-12T16:05:26.767Z,12.02
2022-12-12T16:08:32.056Z,11.32
2022-12-12T16:11:37.648Z,12.57
2022-12-12T16:14:43.087Z,11.80
2022-12-12T16:17:28.256Z,12.43
2022-12-12T16:20:13.790Z,11.57
2022-12-12T16:22:56.885Z,12.10
2022-12-12T16:25:40.342Z,12.05
2022-12-12T16:28:25.759Z,11.10
2022-12-12T16:31:14.675Z,11.30
2022-12-12T16:33:57.475Z,11.27
2022-12-12T16:36:42.470Z,11.90
2022-12-12T16:39:25.320Z,11.80
2022-12-12T16:42:10.913Z,12.20
2022-12-12T16:44:53.564Z,11.77
2022-12-12T16:47:37.684Z,13.35
2022-12-12T16:50:20.307Z,13.05
2022-12-12T16:53:02.980Z,13.55
2022-12-12T16:55:46.527Z,13.55
2022-12-12T16:58:29.224Z,14.00
2022-12-12T17:01:12.143Z,12.70
2022-12-12T17:03:56.369Z,13.23
2022-12-12T17:06:39.020Z,13.32
2022-12-12T17:09:26.845Z,14.02
2022-12-12T17:12:13.197Z,14.07
2022-12-12T17:14:56.069Z,13.00
2022-12-12T17:17:38.690Z,12.75
2022-12-12T17:20:22.925Z,12.43
2022-12-12T17:26:06.072Z,12.00
2022-12-12T17:28:48.799Z,12.50
2022-12-12T17:31:31.602Z,11.68
2022-12-12T17:34:14.379Z,11.93
2022-12-12T17:36:58.591Z,12.23
2022-12-12T17:39:41.383Z,12.45
2022-12-12T17:42:24.064Z,13.23
2022-12-12T17:45:08.667Z,16.80
2022-12-12T17:47:51.345Z,16.80
2022-12-12T17:50:38.439Z,18.90
2022-12-12T17:53:25.670Z,17.40
2022-12-12T17:56:09.397Z,16.88
2022-12-12T17:58:52.402Z,16.88
2022-12-12T18:01:35.115Z,18.70
2022-12-12T18:04:17.828Z,15.75
2022-12-12T18:07:00.643Z,16.15
2022-12-12T18:09:44.752Z,15.48
2022-12-12T18:12:28.228Z,15.13
2022-12-12T18:15:11.363Z,15.77
2022-12-12T18:17:54.213Z,14.30
2022-12-12T18:20:38.252Z,14.60
2022-12-12T18:23:20.868Z,15.02
2022-12-12T18:26:06.417Z,15.60
2022-12-12T18:28:49.271Z,16.63
2022-12-12T18:31:32.349Z,17.42
2022-12-12T18:34:15.408Z,17.02
2022-12-12T18:36:58.244Z,14.77
2022-12-12T18:39:40.902Z,16.33
2022-12-12T18:42:25.439Z,16.17
2022-12-12T18:45:09.270Z,17.95
2022-12-12T18:47:51.987Z,18.65
2022-12-12T18:50:34.866Z,22.13
2022-12-12T18:53:17.545Z,27.73
2022-12-12T18:56:00.326Z,29.23
2022-12-12T18:58:44.616Z,34.97
2022-12-12T19:01:28.511Z,37.08
2022-12-12T19:04:15.082Z,37.28
2022-12-12T19:06:58.890Z,35.90
2022-12-12T19:09:41.827Z,36.25
2022-12-12T19:12:24.463Z,35.90
2022-12-12T19:15:17.643Z,34.65
2022-12-12T19:18:00.598Z,30.27
2022-12-12T19:20:43.239Z,26.17
2022-12-12T19:23:25.930Z,20.38
2022-12-12T19:26:10.940Z,18.73
2022-12-12T19:28:56.201Z,22.80
2022-12-12T19:31:40.386Z,23.88
2022-12-12T19:34:24.191Z,23.98
2022-12-12T19:37:06.828Z,23.88
2022-12-12T19:39:51.856Z,22.73
2022-12-12T19:42:34.644Z,21.98
2022-12-12T19:45:17.786Z,21.45
2022-12-12T19:48:01.788Z,22.77
2022-12-12T19:50:45.025Z,19.55
2022-12-12T19:53:27.650Z,21.17
2022-12-12T19:56:12.491Z,20.67
2022-12-12T19:58:55.719Z,20.15
2022-12-12T20:01:38.841Z,20.33
2022-12-12T20:04:25.527Z,19.35
2022-12-12T20:07:08.133Z,23.58
2022-12-12T20:09:51.043Z,22.55
2022-12-12T20:12:33.807Z,21.38
2022-12-12T20:15:16.802Z,21.85
2022-12-12T20:18:02.054Z,24.70
2022-12-12T20:20:46.148Z,24.90
2022-12-12T20:23:29.004Z,29.08
2022-12-12T20:26:12.840Z,34.40
2022-12-12T20:31:59.957Z,37.80
2022-12-12T20:34:42.774Z,29.13
2022-12-12T20:37:26.794Z,30.40
2022-12-12T20:40:10.100Z,24.88
2022-12-12T20:42:58.531Z,25.65
2022-12-12T20:45:44.306Z,25.45
2022-12-12T20:48:27.070Z,25.77
2022-12-12T20:51:30.988Z,25.23
2022-12-12T20:54:17.045Z,24.42
2022-12-12T20:56:59.678Z,21.63
2022-12-12T20:59:42.767Z,24.05
2022-12-12T21:02:29.998Z,22.08
2022-12-12T21:05:13.437Z,24.58
2022-12-12T21:07:56.356Z,25.88
2022-12-12T21:10:40.408Z,27.77
2022-12-12T21:13:23.318Z,28.05
2022-12-12T21:16:10.014Z,30.80
2022-12-12T21:18:53.545Z,29.13
2022-12-12T21:21:37.928Z,29.08
2022-12-12T21:24:21.122Z,29.90
2022-12-12T21:27:05.102Z,28.75
2022-12-12T21:29:47.663Z,29.27
2022-12-12T21:32:30.300Z,30.00
2022-12-12T21:35:13.199Z,30.10
2022-12-12T21:37:56.104Z,31.17
2022-12-12T21:40:38.732Z,35.30
2022-12-12T21:43:23.926Z,37.45
2022-12-12T21:46:07.147Z,36.15
2022-12-12T21:49:11.454Z,35.13
2022-12-12T21:51:54.588Z,33.38
2022-12-12T21:54:37.527Z,31.38
2022-12-12T21:57:24.673Z,28.55
2022-12-12T22:00:10.321Z,30.77
2022-12-12T22:02:55.132Z,28.85
2022-12-12T22:05:37.817Z,28.50
2022-12-12T22:08:20.618Z,28.67
2022-12-12T22:11:03.238Z,28.75
2022-12-12T22:13:45.919Z,30.38
2022-12-12T22:16:33.510Z,30.42
2022-12-12T22:19:16.581Z,29.20
2022-12-12T22:22:00.135Z,29.48
2022-12-12T22:24:42.761Z,27.48
2022-12-12T22:27:25.348Z,28.00
2022-12-12T22:30:08.533Z,26.85
2022-12-12T22:32:52.551Z,24.33
2022-12-12T22:35:35.126Z,24.98
2022-12-12T22:38:17.713Z,26.15
2022-12-12T22:41:00.375Z,26.38
2022-12-12T22:43:42.981Z,26.45
2022-12-12T22:46:26.481Z,25.58
2022-12-12T22:49:11.628Z,25.85
2022-12-12T22:51:54.872Z,26.35
2022-12-12T22:54:37.839Z,25.90
2022-12-12T22:57:20.470Z,24.63
2022-12-12T23:00:03.340Z,25.27
2022-12-12T23:02:46.008Z,26.15
2022-12-12T23:05:30.020Z,26.15
2022-12-12T23:08:12.740Z,25.27
2022-12-12T23:10:55.452Z,23.73
2022-12-12T23:13:39.188Z,24.30
2022-12-12T23:16:24.000Z,22.73
2022-12-12T23:19:09.926Z,23.33
2022-12-12T23:21:53.900Z,23.55
2022-12-12T23:24:36.617Z,21.67
2022-12-12T23:27:19.151Z,20.17
2022-12-12T23:30:01.752Z,20.90
2022-12-12T23:32:44.365Z,20.20
2022-12-12T23:35:27.035Z,20.95
2022-12-12T23:38:11.032Z,20.80
2022-12-12T23:40:53.690Z,20.90
2022-12-12T23:43:36.279Z,21.50
2022-12-12T23:46:29.286Z,21.80
2022-12-12T23:49:15.041Z,20.35
2022-12-12T23:51:58.420Z,20.52
2022-12-12T23:54:42.426Z,20.55
2022-12-12T23:57:24.974Z,19.88
